Time;durP1;ratioP1;P1;durP2;ratioP2;P2;SDS_P1;SDS_P2;PMS_P1;PMS_P2;Temp;Humidity;BMP_temperature;BMP_pressure;BME280_temperature;BME280_humidity;BME280_pressure;Samples;Min_cycle;Max_cycle;Signal;HPM_P1;HPM_P2
2023/08/28 00:00:10;;;;;;;1.38;0.55;;;12.00;99.90;;;10.97;100.00;97415.63;4966532;28;20133;-72
2023/08/28 00:02:38;;;;;;;2.97;0.60;;;12.00;99.90;;;10.82;100.00;97421.53;4964685;28;20085;-72
2023/08/28 00:05:05;;;;;;;1.75;0.60;;;12.00;99.90;;;10.75;100.00;97414.94;4981073;28;20419;-72
2023/08/28 00:07:33;;;;;;;3.58;0.60;;;11.90;99.90;;;10.73;100.00;97414.16;4965510;28;20120;-72
2023/08/28 00:10:00;;;;;;;3.25;0.70;;;11.90;99.90;;;10.52;100.00;97401.25;4966593;28;20078;-72
2023/08/28 00:12:28;;;;;;;2.08;0.60;;;11.90;99.90;;;10.58;100.00;97390.59;4964165;28;20066;-70
2023/08/28 00:14:55;;;;;;;1.75;0.80;;;11.80;99.90;;;10.58;100.00;97389.72;4965265;28;20097;-72
2023/08/28 00:17:23;;;;;;;4.10;0.90;;;11.80;99.90;;;10.57;100.00;97382.88;4966518;28;20061;-71
2023/08/28 00:19:50;;;;;;;2.50;0.73;;;11.80;99.90;;;10.60;100.00;97368.00;4968283;28;20130;-71
2023/08/28 00:22:18;;;;;;;3.55;0.60;;;11.80;99.90;;;10.55;100.00;97372.56;4969197;28;20086;-71
2023/08/28 00:24:45;;;;;;;12.93;0.98;;;11.60;99.90;;;10.39;100.00;97361.19;4981692;28;20051;-72
2023/08/28 00:27:12;;;;;;;5.00;0.73;;;11.60;99.90;;;10.40;100.00;97362.88;4966633;28;20050;-72
2023/08/28 00:29:39;;;;;;;3.08;0.80;;;11.60;99.90;;;10.41;100.00;97365.41;4950925;28;20134;-72
2023/08/28 00:32:06;;;;;;;1.15;0.60;;;11.50;99.90;;;10.33;100.00;97356.28;4979934;28;20043;-71
2023/08/28 00:34:33;;;;;;;0.90;0.50;;;11.50;99.90;;;10.43;100.00;97360.16;4964782;28;20134;-71
2023/08/28 00:37:00;;;;;;;1.02;0.50;;;11.50;99.90;;;10.28;100.00;97359.03;4965789;28;20169;-72
2023/08/28 00:39:27;;;;;;;1.02;0.60;;;11.60;99.90;;;10.44;100.00;97359.22;4968005;28;20419;-72
2023/08/28 00:41:55;;;;;;;1.35;0.60;;;11.50;99.90;;;10.41;100.00;97357.63;4966582;28;20145;-73
2023/08/28 00:44:22;;;;;;;3.72;0.60;;;11.60;99.90;;;10.48;100.00;97365.13;4964147;28;20050;-72
2023/08/28 00:46:49;;;;;;;3.58;0.60;;;11.60;99.90;;;10.44;100.00;97362.66;4979461;28;20133;-72
2023/08/28 00:49:16;;;;;;;2.30;0.50;;;11.60;99.90;;;10.36;100.00;97366.53;4964420;28;20152;-72
2023/08/28 00:51:44;;;;;;;3.03;0.70;;;11.50;99.90;;;10.48;100.00;97365.13;4964331;28;20050;-72
2023/08/28 00:54:11;;;;;;;1.17;0.50;;;11.60;99.90;;;10.60;100.00;97351.56;4981016;28;20090;-72
2023/08/28 00:56:39;;;;;;;3.83;0.60;;;11.60;99.90;;;10.55;100.00;97341.41;4963332;28;20054;-72
2023/08/28 00:59:06;;;;;;;2.28;0.95;;;11.60;99.90;;;10.55;100.00;97337.97;4966987;28;20062;-71
2023/08/28 01:01:33;;;;;;;1.92;0.50;;;11.60;99.90;;;10.54;100.00;97341.50;4963786;28;20058;-72
2023/08/28 01:04:00;;;;;;;1.77;0.70;;;11.70;99.90;;;10.65;100.00;97340.09;4946981;28;20047;-72
2023/08/28 01:06:35;;;;;;;1.92;0.60;;;11.60;99.90;;;10.62;100.00;97352.34;4965981;28;20046;-72
2023/08/28 01:09:24;;;;;;;3.17;0.50;;;11.70;99.90;;;10.47;100.00;97343.53;4963278;28;20058;-72
2023/08/28 01:12:25;;;;;;;1.85;0.50;;;11.60;99.90;;;10.22;100.00;97343.78;4958572;28;20055;-72
2023/08/28 01:15:06;;;;;;;3.83;0.80;;;11.60;99.90;;;10.21;100.00;97347.25;4963083;28;20090;-71
2023/08/28 01:17:34;;;;;;;1.50;0.60;;;11.50;99.90;;;10.26;100.00;97346.16;4965579;28;20137;-71
2023/08/28 01:20:04;;;;;;;2.13;0.70;;;11.40;99.90;;;10.20;100.00;97349.03;4947088;28;20058;-72
2023/08/28 01:22:57;;;;;;;1.50;0.50;;;11.40;99.90;;;10.12;100.00;97364.06;4977244;28;20077;-72
2023/08/28 01:25:26;;;;;;;2.17;0.50;;;11.30;99.90;;;10.21;100.00;97375.78;4965804;28;20054;-71
2023/08/28 01:27:54;;;;;;;1.90;0.70;;;11.30;99.90;;;10.27;100.00;97384.16;4947242;28;20051;-71
2023/08/28 01:30:21;;;;;;;2.92;0.70;;;11.30;99.90;;;10.30;100.00;97377.19;4978719;28;20432;-72
2023/08/28 01:32:48;;;;;;;2.63;0.50;;;11.30;99.90;;;10.31;100.00;97381.44;4962390;28;20050;-72
2023/08/28 01:35:25;;;;;;;5.28;0.90;;;11.30;99.90;;;10.11;100.00;97372.78;4949321;28;20527;-72
2023/08/28 01:38:22;;;;;;;4.60;0.70;;;11.20;99.90;;;10.16;100.00;97386.38;4963996;28;20081;-71
2023/08/28 01:40:57;;;;;;;3.42;0.95;;;11.10;99.90;;;10.07;100.00;97398.91;4963238;28;20069;-71
2023/08/28 01:43:36;;;;;;;5.00;0.75;;;11.00;99.90;;;9.94;100.00;97390.81;4965385;28;20050;-71
2023/08/28 01:46:05;;;;;;;3.38;0.85;;;10.90;99.90;;;10.20;100.00;97379.31;4960619;28;20119;-71
2023/08/28 01:48:35;;;;;;;2.50;0.80;;;11.00;99.90;;;10.32;100.00;97381.38;4966874;28;20046;-71
2023/08/28 01:51:02;;;;;;;6.40;0.90;;;11.10;99.90;;;10.43;100.00;97388.69;4966591;28;20130;-70
2023/08/28 01:53:30;;;;;;;2.40;0.60;;;11.20;99.90;;;10.45;100.00;97394.66;4978076;28;20129;-70
2023/08/28 01:56:09;;;;;;;4.97;1.08;;;11.30;99.90;;;10.26;100.00;97387.66;4964654;28;20102;-71
2023/08/28 01:58:50;;;;;;;3.03;0.73;;;11.30;99.90;;;10.16;100.00;97382.94;4964115;28;20043;-71
2023/08/28 02:01:18;;;;;;;5.80;1.63;;;11.30;99.90;;;10.35;100.00;97386.41;4957877;28;20460;-71
2023/08/28 02:03:46;;;;;;;4.47;0.75;;;11.30;99.90;;;10.42;100.00;97398.25;4953339;28;20050;-71
2023/08/28 02:06:13;;;;;;;6.15;0.85;;;11.40;99.90;;;10.32;100.00;97391.75;4966907;28;20483;-71
2023/08/28 02:08:40;;;;;;;5.20;0.95;;;11.30;99.90;;;10.23;100.00;97392.13;4964571;28;20796;-71
2023/08/28 02:11:07;;;;;;;2.20;0.80;;;11.20;99.90;;;10.41;100.00;97391.34;4969882;28;20121;-71
2023/08/28 02:13:35;;;;;;;1.42;0.73;;;11.30;99.90;;;10.54;100.00;97390.81;4966186;28;20051;-71
2023/08/28 02:16:03;;;;;;;1.50;0.65;;;11.40;99.90;;;10.54;100.00;97388.22;4966172;28;20121;-72
2023/08/28 02:18:30;;;;;;;3.30;0.60;;;11.50;99.90;;;10.51;100.00;97378.78;4969627;28;20050;-71
2023/08/28 02:20:57;;;;;;;3.08;0.60;;;11.50;99.90;;;10.42;100.00;97372.28;4967644;28;20050;-71
2023/08/28 02:23:26;;;;;;;3.85;0.63;;;11.50;99.90;;;10.29;100.00;97376.34;4967392;28;20039;-72
2023/08/28 02:25:53;;;;;;;4.43;0.68;;;11.50;99.90;;;10.16;100.00;97380.34;4969879;28;20157;-72
2023/08/28 02:28:20;;;;;;;2.50;0.70;;;11.40;99.90;;;10.26;100.00;97379.88;4967823;28;20531;-72
2023/08/28 02:30:48;;;;;;;1.10;0.60;;;11.30;99.90;;;10.30;100.00;97377.19;4968532;28;20058;-71
2023/08/28 02:33:16;;;;;;;6.35;0.60;;;11.40;99.90;;;10.09;100.00;97364.22;4967334;28;20860;-71
2023/08/28 02:35:44;;;;;;;1.63;0.60;;;11.30;99.90;;;10.11;100.00;97358.97;4967403;28;20059;-73
2023/08/28 02:38:11;;;;;;;3.22;0.70;;;11.30;99.90;;;9.99;100.00;97360.31;4966494;28;20051;-72
2023/08/28 02:40:39;;;;;;;1.67;0.52;;;11.20;99.90;;;10.00;100.00;97349.91;4965994;28;20090;-72
2023/08/28 02:43:07;;;;;;;1.17;0.55;;;11.20;99.90;;;9.91;100.00;97345.13;4983165;28;20138;-71
2023/08/28 02:45:36;;;;;;;1.70;0.60;;;11.10;99.90;;;9.81;100.00;97344.69;4966843;28;20070;-71
2023/08/28 02:48:04;;;;;;;1.95;0.70;;;11.00;99.90;;;9.74;100.00;97337.22;4954688;28;20043;-72
2023/08/28 02:50:35;;;;;;;3.15;0.85;;;10.90;99.90;;;9.72;100.00;97328.69;4966097;28;20057;-71
2023/08/28 02:53:03;;;;;;;3.22;0.80;;;10.80;99.90;;;9.68;100.00;97317.59;4964412;28;20087;-72
2023/08/28 02:55:39;;;;;;;3.33;0.70;;;10.80;99.90;;;9.70;100.00;97322.72;4967746;28;20047;-71
2023/08/28 02:58:07;;;;;;;3.63;0.75;;;10.80;99.90;;;9.74;100.00;97324.25;4966434;28;20078;-71
2023/08/28 03:00:41;;;;;;;3.53;0.50;;;10.80;99.90;;;9.60;100.00;97324.84;4966565;28;20078;-71
2023/08/28 03:03:09;;;;;;;1.15;0.50;;;10.70;99.90;;;9.69;100.00;97315.84;4964899;28;20051;-72
2023/08/28 03:05:36;;;;;;;4.78;0.80;;;10.70;99.90;;;9.66;100.00;97319.41;4980882;28;20047;-71
2023/08/28 03:08:04;;;;;;;3.33;0.63;;;10.70;99.90;;;9.71;100.00;97308.84;4965779;28;20109;-71
2023/08/28 03:10:31;;;;;;;2.83;0.70;;;10.70;99.90;;;9.71;100.00;97298.47;4967181;28;20051;-72
2023/08/28 03:12:58;;;;;;;3.20;0.70;;;10.70;99.90;;;9.73;100.00;97301.84;4964786;28;20051;-72
2023/08/28 03:15:26;;;;;;;5.90;0.90;;;10.80;99.90;;;9.69;100.00;97295.94;4965179;28;20055;-71
2023/08/28 03:17:53;;;;;;;2.22;0.60;;;10.80;99.90;;;9.75;100.00;97295.69;4965864;28;20055;-72
2023/08/28 03:20:20;;;;;;;2.13;0.50;;;10.80;99.90;;;9.76;100.00;97287.03;4965861;28;20763;-72
2023/08/28 03:22:47;;;;;;;0.93;0.50;;;10.80;99.90;;;9.84;100.00;97287.50;4966387;28;20748;-71
2023/08/28 03:25:14;;;;;;;2.25;0.60;;;10.80;99.90;;;9.97;100.00;97287.81;4965157;28;20138;-70
2023/08/28 03:27:42;;;;;;;1.48;0.50;;;10.90;99.90;;;10.09;100.00;97273.44;4967017;28;20078;-71
2023/08/28 03:30:09;;;;;;;1.75;0.60;;;10.90;99.90;;;10.20;100.00;97263.44;4966825;28;20456;-72
2023/08/28 03:32:37;;;;;;;5.38;0.77;;;11.10;99.90;;;10.28;100.00;97268.25;4965798;28;20117;-71
2023/08/28 03:35:04;;;;;;;2.05;0.70;;;11.10;99.90;;;10.29;100.00;97266.56;4967046;28;20054;-71
2023/08/28 03:37:48;;;;;;;0.93;0.52;;;11.10;99.90;;;10.38;100.00;97266.97;4963404;28;20058;-71
2023/08/28 03:40:16;;;;;;;3.35;0.50;;;11.20;99.90;;;10.27;100.00;97266.59;4966496;28;20806;-71
2023/08/28 03:42:46;;;;;;;2.03;0.60;;;11.10;99.90;;;10.32;100.00;97267.22;4966047;28;20059;-71
2023/08/28 03:45:13;;;;;;;2.13;0.60;;;11.20;99.90;;;10.44;100.00;97258.88;4966446;28;20074;-72
2023/08/28 03:47:41;;;;;;;2.75;0.65;;;11.20;99.90;;;10.44;100.00;97258.03;4964729;28;20526;-71
2023/08/28 03:50:08;;;;;;;1.88;0.60;;;11.30;99.90;;;10.37;100.00;97260.06;4964877;28;20047;-72
2023/08/28 03:52:35;;;;;;;2.20;0.60;;;11.30;99.90;;;10.40;100.00;97261.69;4949340;28;20495;-72
2023/08/28 03:55:03;;;;;;;2.17;0.50;;;11.30;99.90;;;10.31;100.00;97256.91;4966334;28;20055;-72
2023/08/28 03:57:30;;;;;;;1.98;0.60;;;11.20;99.90;;;10.20;100.00;97255.66;4966392;28;20110;-72
2023/08/28 03:59:57;;;;;;;2.88;0.70;;;11.20;99.90;;;10.25;100.00;97253.66;4950420;28;20833;-72
2023/08/28 04:02:24;;;;;;;1.95;0.75;;;11.10;99.90;;;10.23;100.00;97254.66;4962912;28;20074;-72
2023/08/28 04:04:52;;;;;;;5.15;0.95;;;11.00;99.90;;;10.18;100.00;97241.91;4969157;28;20054;-71
2023/08/28 04:07:33;;;;;;;6.15;0.77;;;11.00;99.90;;;10.21;100.00;97243.50;4962963;28;20054;-71
2023/08/28 04:10:01;;;;;;;2.20;0.70;;;11.10;99.90;;;10.17;100.00;97245.44;4965544;28;20142;-71
2023/08/28 04:12:28;;;;;;;1.73;0.68;;;11.10;99.90;;;10.10;100.00;97246.59;4979809;28;20122;-70
2023/08/28 04:14:55;;;;;;;2.83;0.98;;;11.10;99.90;;;10.05;100.00;97244.22;4966878;28;20054;-72
2023/08/28 04:17:22;;;;;;;1.13;0.60;;;11.00;99.90;;;10.09;100.00;97242.34;4964135;28;20069;-72
2023/08/28 04:19:51;;;;;;;1.50;0.80;;;11.00;99.90;;;9.99;100.00;97244.50;4967990;28;20051;-72
2023/08/28 04:22:19;;;;;;;2.38;0.75;;;11.00;99.90;;;10.01;100.00;97253.06;4968314;28;20055;-71
2023/08/28 04:24:49;;;;;;;2.45;0.73;;;11.00;99.90;;;10.04;100.00;97258.09;4968567;28;20121;-72
2023/08/28 04:27:17;;;;;;;1.77;0.60;;;11.00;99.90;;;10.09;100.00;97257.06;4952713;28;20050;-72
2023/08/28 04:29:44;;;;;;;1.92;0.70;;;11.10;99.90;;;9.93;100.00;97251.72;4966190;28;20051;-70
2023/08/28 04:32:11;;;;;;;1.83;0.70;;;11.10;99.90;;;9.92;100.00;97256.06;4981328;28;20063;-71
2023/08/28 04:34:38;;;;;;;3.75;0.88;;;11.00;99.90;;;9.88;100.00;97264.91;4952398;28;20055;-71
2023/08/28 04:37:05;;;;;;;3.40;0.90;;;11.00;99.90;;;9.79;100.00;97260.97;4965864;28;20078;-72
2023/08/28 04:39:32;;;;;;;1.17;0.57;;;10.90;99.90;;;9.81;100.00;97268.69;4959748;28;20093;-71
2023/08/28 04:41:59;;;;;;;4.53;0.70;;;10.90;99.90;;;9.76;100.00;97273.19;4961653;28;20271;-72
2023/08/28 04:44:26;;;;;;;2.83;0.85;;;10.90;99.90;;;9.63;100.00;97272.91;4960373;28;20467;-72
2023/08/28 04:46:54;;;;;;;4.80;0.80;;;10.90;99.90;;;9.68;100.00;97277.91;4966796;28;20061;-72
2023/08/28 04:49:21;;;;;;;3.50;0.60;;;10.80;99.90;;;9.76;100.00;97292.22;4966569;28;20078;-71
2023/08/28 04:51:48;;;;;;;2.67;0.60;;;10.80;99.90;;;9.82;100.00;97289.31;4966714;28;20168;-71
2023/08/28 04:54:15;;;;;;;1.35;0.60;;;10.80;99.90;;;9.81;100.00;97292.84;4965592;28;20043;-72
2023/08/28 04:56:45;;;;;;;1.33;0.57;;;10.80;99.90;;;9.81;100.00;97285.06;4963978;28;20050;-72
2023/08/28 04:59:12;;;;;;;2.92;0.50;;;10.80;99.90;;;9.86;100.00;97286.63;4963220;28;20067;-72
2023/08/28 05:01:40;;;;;;;1.50;0.50;;;10.80;99.90;;;9.89;100.00;97284.72;4967570;28;20144;-72
2023/08/28 05:04:07;;;;;;;4.07;0.70;;;10.90;99.90;;;9.88;100.00;97279.63;4965333;28;20050;-72
2023/08/28 05:06:34;;;;;;;3.30;0.90;;;10.80;99.90;;;9.81;100.00;97271.28;4967241;28;20055;-72
2023/08/28 05:09:03;;;;;;;1.75;0.73;;;10.90;99.90;;;9.92;100.00;97276.81;4963992;28;20405;-72
2023/08/28 05:11:30;;;;;;;2.05;0.63;;;10.90;99.90;;;9.99;100.00;97274.75;4965011;28;20667;-72
2023/08/28 05:13:58;;;;;;;1.70;0.80;;;10.90;99.90;;;10.19;100.00;97266.91;4966187;28;20050;-72
2023/08/28 05:16:25;;;;;;;1.70;0.70;;;11.00;99.90;;;10.21;100.00;97266.84;4965138;28;20082;-72
2023/08/28 05:18:52;;;;;;;3.35;0.70;;;11.10;99.90;;;10.32;100.00;97263.81;4964486;28;20117;-70
2023/08/28 05:21:19;;;;;;;4.45;0.80;;;11.20;99.90;;;10.15;100.00;97257.63;4965976;28;20082;-72
2023/08/28 05:23:46;;;;;;;3.53;0.70;;;11.10;99.90;;;10.35;100.00;97261.88;4966689;28;20059;-72
2023/08/28 05:26:13;;;;;;;1.27;0.60;;;11.20;99.90;;;10.51;100.00;97264.59;4965484;28;20113;-72
2023/08/28 05:28:41;;;;;;;1.88;0.70;;;11.30;99.90;;;10.66;100.00;97256.09;4981866;28;20050;-72
2023/08/28 05:31:08;;;;;;;1.63;0.63;;;11.40;99.90;;;10.75;100.00;97259.19;4963089;28;20464;-71
2023/08/28 05:33:36;;;;;;;2.83;0.50;;;11.50;99.90;;;10.67;100.00;97255.19;4963499;28;20134;-72
2023/08/28 05:36:03;;;;;;;3.45;0.90;;;11.50;99.90;;;10.43;100.00;97248.56;4964713;28;20051;-72
2023/08/28 05:38:31;;;;;;;0.95;0.60;;;11.50;99.90;;;10.44;100.00;97253.69;4965719;28;20059;-72
2023/08/28 05:40:58;;;;;;;1.33;0.40;;;11.40;99.90;;;10.71;100.00;97255.03;4960466;28;20121;-72
2023/08/28 05:43:25;;;;;;;4.18;0.60;;;11.50;99.90;;;10.82;100.00;97258.78;4963489;28;20051;-72
2023/08/28 05:45:52;;;;;;;2.38;0.50;;;11.50;99.90;;;10.81;100.00;97257.13;4964414;28;20047;-72
2023/08/28 05:48:22;;;;;;;1.10;0.57;;;11.70;99.90;;;10.82;100.00;97257.97;4963794;28;20043;-72
2023/08/28 05:50:50;;;;;;;2.25;0.70;;;11.70;99.90;;;11.05;100.00;97259.44;4966135;28;20505;-72
2023/08/28 05:53:17;;;;;;;1.42;0.75;;;11.80;99.90;;;11.01;100.00;97255.28;4965812;28;20550;-71
2023/08/28 05:55:45;;;;;;;3.25;0.73;;;11.80;99.90;;;11.03;100.00;97264.69;4963223;28;20058;-72
2023/08/28 05:58:12;;;;;;;2.55;0.70;;;11.90;99.90;;;11.06;100.00;97264.56;4978146;28;20133;-71
2023/08/28 06:00:39;;;;;;;1.42;0.60;;;11.90;99.90;;;11.03;100.00;97258.66;4966527;28;20043;-72
2023/08/28 06:03:06;;;;;;;2.10;0.60;;;11.90;99.90;;;11.23;100.00;97260.28;4964681;28;20588;-72
2023/08/28 06:05:34;;;;;;;1.42;0.60;;;11.90;99.90;;;11.33;100.00;97269.25;4962148;28;20090;-71
2023/08/28 06:08:01;;;;;;;5.22;0.70;;;12.00;99.90;;;11.47;100.00;97261.63;4962682;28;20047;-70
2023/08/28 06:10:29;;;;;;;3.28;0.73;;;12.10;99.90;;;11.56;100.00;97269.84;4961849;28;20107;-71
2023/08/28 06:12:57;;;;;;;2.45;0.60;;;12.30;99.90;;;11.73;100.00;97268.06;4963813;28;20058;-72
2023/08/28 06:15:25;;;;;;;1.67;0.70;;;12.40;99.90;;;11.77;100.00;97271.38;4962113;28;20070;-71
2023/08/28 06:17:53;;;;;;;2.92;0.50;;;12.50;99.90;;;12.08;100.00;97269.75;4962877;28;20053;-70
2023/08/28 06:20:22;;;;;;;2.17;0.60;;;12.60;99.90;;;12.22;100.00;97269.84;4967459;28;20422;-72
2023/08/28 06:22:49;;;;;;;4.93;0.75;;;12.70;99.90;;;12.28;100.00;97266.09;4967265;28;20090;-72
2023/08/28 06:25:17;;;;;;;2.33;0.70;;;12.80;99.90;;;12.31;100.00;97277.16;4962926;28;20129;-72
2023/08/28 06:27:44;;;;;;;4.63;0.80;;;12.80;99.90;;;12.64;100.00;97275.41;4963746;28;20129;-72
2023/08/28 06:30:12;;;;;;;2.70;1.05;;;13.00;99.90;;;12.69;100.00;97276.81;4965187;28;20046;-72
2023/08/28 06:32:39;;;;;;;1.63;0.68;;;13.10;99.90;;;12.67;100.00;97281.28;4968041;28;20420;-72
2023/08/28 06:35:10;;;;;;;1.75;0.73;;;13.20;99.90;;;12.96;100.00;97284.00;4964792;28;20054;-72
2023/08/28 06:37:37;;;;;;;1.92;0.82;;;13.40;99.90;;;13.04;100.00;97281.78;4965889;28;20100;-69
2023/08/28 06:40:08;;;;;;;3.10;0.90;;;13.50;99.90;;;12.95;100.00;97282.31;4959187;28;20050;-71
2023/08/28 06:42:36;;;;;;;1.15;0.60;;;13.60;99.90;;;12.98;100.00;97277.78;4963803;28;20053;-70
2023/08/28 06:45:04;;;;;;;1.33;0.60;;;13.60;99.90;;;13.29;100.00;97283.84;4961816;28;20181;-72
2023/08/28 06:47:31;;;;;;;2.10;0.90;;;13.60;99.90;;;12.90;100.00;97286.94;4966187;28;20055;-73
2023/08/28 06:50:00;;;;;;;2.25;0.90;;;13.60;99.90;;;12.95;100.00;97279.72;4968776;28;20058;-73
2023/08/28 06:52:27;;;;;;;3.47;0.90;;;13.50;99.90;;;13.09;100.00;97266.75;4985681;28;20046;-73
2023/08/28 06:54:54;;;;;;;1.67;0.80;;;13.50;99.90;;;12.92;100.00;97267.69;4963876;28;20043;-73
2023/08/28 06:57:21;;;;;;;1.58;0.80;;;13.50;99.90;;;13.07;100.00;97267.75;4968097;28;20106;-73
2023/08/28 06:59:49;;;;;;;3.00;0.82;;;13.50;99.90;;;13.25;100.00;97265.84;4968975;28;20063;-73
2023/08/28 07:02:16;;;;;;;2.05;0.80;;;13.70;99.90;;;13.37;100.00;97249.53;4969614;28;20050;-73
2023/08/28 07:04:43;;;;;;;2.55;0.82;;;13.90;99.90;;;13.53;100.00;97254.69;4967344;28;20465;-73
2023/08/28 07:07:18;;;;;;;1.58;0.60;;;14.00;99.90;;;13.31;100.00;97252.50;4966012;28;20055;-72
2023/08/28 07:09:45;;;;;;;2.67;0.63;;;14.10;99.90;;;13.00;100.00;97248.19;4967197;28;20409;-68
2023/08/28 07:12:12;;;;;;;7.97;1.00;;;14.00;99.90;;;12.93;100.00;97243.34;4964054;28;20409;-72
2023/08/28 07:14:39;;;;;;;3.92;0.63;;;14.00;99.90;;;12.86;100.00;97244.59;4964944;28;20138;-72
2023/08/28 07:17:06;;;;;;;3.95;0.60;;;13.80;99.90;;;12.94;100.00;97241.56;4966847;28;20126;-73
2023/08/28 07:19:33;;;;;;;10.27;0.80;;;13.80;99.90;;;13.05;100.00;97240.97;4968339;28;20477;-73
2023/08/28 07:22:02;;;;;;;3.25;0.60;;;13.80;99.90;;;13.03;100.00;97243.66;4966216;28;20588;-73
2023/08/28 07:24:30;;;;;;;5.47;0.73;;;13.90;99.90;;;13.14;100.00;97240.44;4954047;28;20063;-74
2023/08/28 07:26:57;;;;;;;2.55;0.73;;;13.90;99.90;;;13.07;100.00;97239.94;4969036;28;20141;-73
2023/08/28 07:29:24;;;;;;;3.25;0.50;;;13.90;99.90;;;13.28;100.00;97243.09;4968749;28;20051;-73
2023/08/28 07:31:51;;;;;;;1.63;0.43;;;14.00;99.90;;;13.46;100.00;97228.13;4965376;28;20106;-73
2023/08/28 07:34:18;;;;;;;1.77;0.52;;;14.10;99.90;;;13.37;100.00;97226.06;4967468;28;20106;-73
2023/08/28 07:36:45;;;;;;;1.02;0.50;;;14.20;99.90;;;13.55;100.00;97222.38;4966438;28;20106;-73
2023/08/28 07:39:15;;;;;;;2.25;0.60;;;14.20;99.90;;;13.41;100.00;97224.97;4965733;28;20105;-73
2023/08/28 07:41:42;;;;;;;2.45;0.50;;;14.30;99.90;;;13.67;100.00;97212.94;4982813;28;20042;-73
2023/08/28 07:44:09;;;;;;;4.20;1.23;;;14.30;99.90;;;13.62;100.00;97207.19;4966291;28;20083;-73
2023/08/28 07:46:37;;;;;;;4.38;0.63;;;14.30;99.90;;;13.90;100.00;97200.28;4967406;28;20823;-73
2023/08/28 07:49:04;;;;;;;2.63;0.85;;;14.40;99.90;;;13.87;100.00;97198.69;4965318;28;20145;-73
2023/08/28 07:51:31;;;;;;;1.70;0.60;;;14.50;99.90;;;13.91;100.00;97209.75;4981345;28;20043;-74
2023/08/28 07:53:58;;;;;;;3.28;0.73;;;14.50;99.90;;;14.25;100.00;97213.72;4966044;28;20063;-74
2023/08/28 07:56:25;;;;;;;1.55;0.68;;;14.70;99.90;;;14.28;100.00;97210.06;4968166;28;20061;-73
2023/08/28 07:58:52;;;;;;;2.50;0.60;;;14.80;99.90;;;14.36;100.00;97210.44;4965210;28;20527;-73
2023/08/28 08:01:20;;;;;;;2.25;0.70;;;14.90;99.90;;;14.48;100.00;97209.63;4965472;28;20112;-73
2023/08/28 08:03:47;;;;;;;1.75;0.70;;;15.10;99.90;;;14.46;100.00;97210.66;4965673;28;20117;-73
2023/08/28 08:06:16;;;;;;;2.28;0.70;;;15.10;99.90;;;14.26;100.00;97207.56;4964932;28;20062;-73
2023/08/28 08:08:45;;;;;;;1.92;0.88;;;15.10;99.90;;;14.49;100.00;97220.94;4968141;28;20141;-73
2023/08/28 08:11:12;;;;;;;1.92;0.60;;;15.20;99.90;;;14.95;100.00;97210.97;4962164;28;20049;-73
2023/08/28 08:13:39;;;;;;;1.70;0.60;;;15.30;99.90;;;15.12;100.00;97198.53;4964753;28;20046;-73
2023/08/28 08:16:06;;;;;;;1.17;0.60;;;15.60;99.90;;;15.47;100.00;97197.00;4979047;28;20070;-73
2023/08/28 08:18:34;;;;;;;3.28;0.60;;;15.80;99.90;;;15.77;100.00;97195.84;4964193;28;20078;-73
2023/08/28 08:21:01;;;;;;;4.57;0.70;;;16.00;99.90;;;15.73;100.00;97191.78;4966831;28;20452;-73
2023/08/28 08:23:30;;;;;;;2.53;0.68;;;16.30;99.90;;;15.86;100.00;97189.97;4951271;28;20101;-72
2023/08/28 08:25:58;;;;;;;2.08;0.60;;;16.30;99.90;;;15.46;100.00;97192.72;4964611;28;20078;-73
2023/08/28 08:28:25;;;;;;;1.83;0.60;;;16.50;99.90;;;15.47;100.00;97190.94;4966875;28;20055;-73
2023/08/28 08:30:53;;;;;;;1.10;0.40;;;16.30;99.90;;;15.89;100.00;97181.91;4965587;28;20550;-72
2023/08/28 08:33:20;;;;;;;0.98;0.50;;;16.20;99.90;;;15.53;100.00;97193.13;4962434;28;20831;-73
2023/08/28 08:35:47;;;;;;;1.52;0.50;;;16.30;99.90;;;15.35;100.00;97187.38;4961142;28;20067;-73
2023/08/28 08:38:15;;;;;;;2.50;0.70;;;16.30;99.90;;;15.52;100.00;97185.38;4969534;28;20042;-73
2023/08/28 08:40:43;;;;;;;3.50;0.60;;;16.20;99.90;;;15.41;100.00;97183.50;4967758;28;20719;-73
2023/08/28 08:43:10;;;;;;;3.05;0.70;;;16.30;99.90;;;15.27;100.00;97193.13;4968331;28;20054;-73
2023/08/28 08:45:40;;;;;;;1.65;0.60;;;16.30;99.90;;;15.22;100.00;97199.63;4964461;28;20137;-72
2023/08/28 08:48:08;;;;;;;2.33;0.70;;;16.10;99.90;;;15.11;100.00;97205.56;4965961;28;20059;-73
2023/08/28 08:50:37;;;;;;;5.22;0.80;;;15.90;99.90;;;14.93;100.00;97207.59;4965852;28;20059;-73
2023/08/28 08:53:19;;;;;;;2.88;0.77;;;15.80;99.90;;;15.30;100.00;97202.53;4965928;28;20050;-73
2023/08/28 08:55:47;;;;;;;2.15;0.60;;;15.80;99.90;;;15.57;100.00;97220.75;4963590;28;20109;-73
2023/08/28 08:58:16;;;;;;;1.05;0.50;;;16.00;99.90;;;15.55;100.00;97219.16;4963160;28;20047;-74
2023/08/28 09:00:43;;;;;;;3.58;0.70;;;16.10;99.90;;;15.30;100.00;97223.44;4964357;28;20449;-74
2023/08/28 09:03:14;;;;;;;3.85;0.60;;;16.20;99.90;;;15.00;100.00;97229.78;4967352;28;20661;-73
2023/08/28 09:05:42;;;;;;;2.78;0.93;;;16.10;99.90;;;15.15;100.00;97235.78;4985075;28;20054;-73
2023/08/28 09:08:10;;;;;;;4.32;0.75;;;16.00;99.90;;;15.12;100.00;97241.22;4965810;28;20078;-73
2023/08/28 09:10:37;;;;;;;3.67;0.60;;;16.00;99.90;;;15.77;100.00;97239.50;4966776;28;20549;-73
2023/08/28 09:13:06;;;;;;;2.92;0.80;;;16.10;99.90;;;15.79;100.00;97235.00;4964164;28;20062;-74
2023/08/28 09:15:33;;;;;;;2.85;0.68;;;16.20;99.90;;;15.99;100.00;97231.84;4966805;28;20051;-74
2023/08/28 09:18:02;;;;;;;3.63;0.70;;;16.40;99.90;;;16.34;100.00;97230.28;4969007;28;20051;-74
2023/08/28 09:20:29;;;;;;;3.45;0.60;;;16.70;99.90;;;16.58;100.00;97238.16;4965589;28;20045;-74
2023/08/28 09:22:56;;;;;;;3.22;0.60;;;16.80;99.90;;;16.76;100.00;97244.69;4963776;28;20055;-74
2023/08/28 09:25:27;;;;;;;1.42;0.60;;;17.00;99.90;;;16.78;100.00;97240.16;4965641;28;20047;-74
2023/08/28 09:27:56;;;;;;;1.67;0.60;;;17.20;99.90;;;16.80;100.00;97234.84;4977993;28;20076;-74
2023/08/28 09:30:36;;;;;;;1.20;0.50;;;17.30;99.90;;;16.78;100.00;97240.16;4963657;28;20109;-73
2023/08/28 09:33:06;;;;;;;1.80;0.57;;;17.40;99.90;;;16.79;100.00;97241.88;4961338;28;20474;-74
2023/08/28 09:35:40;;;;;;;0.93;0.60;;;17.50;99.90;;;16.69;100.00;97236.47;4962499;28;20051;-74
2023/08/28 09:38:09;;;;;;;2.83;0.70;;;17.60;99.90;;;17.07;100.00;97237.22;4949430;28;20050;-73
2023/08/28 09:40:41;;;;;;;2.05;0.63;;;17.60;99.90;;;16.77;100.00;97235.88;4966879;28;20042;-73
2023/08/28 09:43:13;;;;;;;3.05;0.70;;;17.50;99.90;;;17.18;100.00;97233.81;4963036;28;20137;-73
2023/08/28 09:45:43;;;;;;;1.58;0.63;;;17.60;99.90;;;16.42;100.00;97236.66;4981938;28;20047;-73
2023/08/28 09:48:11;;;;;;;2.50;0.65;;;17.60;99.90;;;16.72;100.00;97238.84;4964135;28;20170;-73
2023/08/28 09:50:43;;;;;;;3.13;0.60;;;17.60;99.90;;;17.17;100.00;97235.56;4965820;28;20053;-74
2023/08/28 09:53:14;;;;;;;4.72;0.70;;;17.70;99.90;;;16.77;100.00;97241.13;4963212;28;20407;-74
2023/08/28 09:55:53;;;;;;;2.78;0.70;;;17.60;99.90;;;16.83;100.00;97238.09;4966402;28;20795;-74
2023/08/28 09:58:26;;;;;;;2.78;0.70;;;17.50;99.90;;;16.99;100.00;97231.69;4966177;28;20042;-74
2023/08/28 10:00:56;;;;;;;3.08;0.85;;;17.70;99.90;;;17.10;100.00;97242.22;4977259;28;20055;-74
2023/08/28 10:03:25;;;;;;;2.08;0.70;;;17.80;99.90;;;17.51;100.00;97252.22;4963559;28;20473;-74
2023/08/28 10:05:53;;;;;;;3.65;0.80;;;17.90;99.90;;;17.07;100.00;97248.53;4980295;28;20059;-73
2023/08/28 10:08:25;;;;;;;5.43;0.80;;;18.10;99.90;;;17.31;100.00;97245.03;4980970;28;20045;-74
2023/08/28 10:10:56;;;;;;;1.50;0.70;;;17.90;99.90;;;17.05;100.00;97237.31;4962455;28;20071;-74
2023/08/28 10:13:23;;;;;;;1.65;0.70;;;18.10;99.90;;;17.97;100.00;97224.25;4965856;28;20042;-72
2023/08/28 10:16:18;;;;;;;1.95;0.50;;;18.40;99.90;;;17.95;100.00;97226.19;4980885;28;20046;-73
2023/08/28 10:18:59;;;;;;;3.13;0.90;;;18.50;99.90;;;17.44;100.00;97226.59;4980315;28;20075;-74